Riesel, Texas
Current Conditions -  °F | °C
As of 11:55 AM on Saturday 22 Nov 2014 (Local Time) from KCNW Reporting Station
Overcast Overcast  
Wind Chill: 66°   Ceiling: 2300
Heat Index: 66°   Visibility: 10mi
Dew Point: 61°   Wind: 5mph
Humidity: 83%   Direction: 100°E
Pressure: 29.94"   Gusts: NA
Location:  31.47°N, 96.92°W
Report Text: KCNW 221755Z 10004KT 10SM BKN023 OVC100 19/16 A2994
Loading
Personal Weather Stations






























Interactive Weather Map New forecast layout! Learn more

10-Day Weather Forecast

Advertisements
Track Severe Weather on mobile